Terminal Aerodrome Forecast
Issued by NWS Salt Lake City, UT

Home | Current Version | Previous Version | Text Only | Print | Product List | Glossary On
Versions: 1 2 3 4 5 6 7 8 9 10 11 12 13 14 15 16 17 18 19 20 21
000
FTUS45 KSLC 291855 AAA
TAFCDC
TAF AMD
KCDC 291855Z 2919/3018 35008KT P6SM -SHRA VCTS SCT030CB BKN050
     FM300200 VRB04KT P6SM VCSH BKN070
     FM300800 20005KT P6SM -RA BKN030
     FM301500 03012KT P6SM VCSH BKN040=

USA.gov is the U.S. government's official web portal to all federal, state and local government web resources and services.